Terminal Aerodrome Forecast
Issued by NWS

Home | Current Version | Previous Version | Text Only | Print | Product List | Glossary On
Versions: 1 2 3 4 5 6 7 8 9 10 11 12 13 14
000
FTAK31 PANC 212322
TAFADQ
TAF
PADQ 212322Z 2200/2224 09018KT P6SM VCSH BKN020
      TEMPO 2200/2204 -RA BKN015
     FM220400 08020G26KT 5SM -RA BR OVC012
     FM220700 06028G36KT 3SM -RA BR BKN008
     FM221700 07016G24KT 5SM -RA BR SCT006 OVC010=

USA.gov is the U.S. government's official web portal to all federal, state and local government web resources and services.